Time;durP1;ratioP1;P1;durP2;ratioP2;P2;SDS_P1;SDS_P2;PMS_P1;PMS_P2;Temp;Humidity;BMP_temperature;BMP_pressure;BME280_temperature;BME280_humidity;BME280_pressure;Samples;Min_cycle;Max_cycle;Signal;HPM_P1;HPM_P2
2022/08/20 00:01:34;;;;;;;;;;;19.50;99.90;;;;;;5042821;28;39527;-77
2022/08/20 00:04:00;;;;;;;;;;;19.50;99.90;;;;;;5035525;28;38342;-76
2022/08/20 00:06:26;;;;;;;;;;;19.50;99.90;;;;;;5041809;28;37684;-77
2022/08/20 00:08:52;;;;;;;;;;;19.50;99.90;;;;;;5038650;28;40721;-77
2022/08/20 00:11:22;;;;;;;;;;;19.40;99.90;;;;;;5035448;28;37400;-77
2022/08/20 00:13:50;;;;;;;;;;;19.30;99.90;;;;;;5038828;28;37775;-77
2022/08/20 00:16:17;;;;;;;;;;;19.20;99.90;;;;;;5036253;28;37390;-77
2022/08/20 00:18:44;;;;;;;;;;;19.20;99.90;;;;;;5048330;28;39887;-76
2022/08/20 00:21:12;;;;;;;;;;;19.20;99.90;;;;;;5040288;28;38609;-77
2022/08/20 00:23:39;;;;;;;;;;;19.20;99.90;;;;;;5036927;28;38242;-75
2022/08/20 00:26:06;;;;;;;;;;;19.10;99.90;;;;;;5040822;28;37201;-76
2022/08/20 00:28:32;;;;;;;;;;;19.10;99.90;;;;;;5051696;28;37808;-76
2022/08/20 00:30:58;;;;;;;;;;;19.00;99.90;;;;;;5039248;28;39145;-76
2022/08/20 00:33:25;;;;;;;;;;;18.90;99.90;;;;;;5038488;28;39037;-76
2022/08/20 00:35:53;;;;;;;;;;;18.90;99.90;;;;;;5074185;28;37805;-77
2022/08/20 00:38:19;;;;;;;;;;;18.90;99.90;;;;;;5073084;28;38998;-76
2022/08/20 00:40:55;;;;;;;;;;;18.90;99.90;;;;;;5082975;27;38387;-76
2022/08/20 00:43:24;;;;;;;;;;;18.90;99.90;;;;;;5043468;27;39006;-76
2022/08/20 00:45:54;;;;;;;;;;;19.00;99.90;;;;;;5060052;28;37885;-76
2022/08/20 00:48:20;;;;;;;;;;;19.00;99.90;;;;;;5037287;28;40335;-76
2022/08/20 00:50:46;;;;;;;;;;;19.10;99.90;;;;;;5045511;28;39781;-76
2022/08/20 00:53:13;;;;;;;;;;;19.10;99.90;;;;;;5058149;28;37302;-76
2022/08/20 00:55:40;;;;;;;;;;;19.10;99.90;;;;;;5054459;28;38542;-76
2022/08/20 00:58:08;;;;;;;;;;;19.10;99.90;;;;;;5052980;27;39535;-76
2022/08/20 01:00:37;;;;;;;;;;;19.10;99.90;;;;;;5058090;27;38586;-77
2022/08/20 01:03:08;;;;;;;;;;;19.10;99.90;;;;;;5067615;27;38683;-77
2022/08/20 01:05:35;;;;;;;;;;;19.10;99.90;;;;;;5060730;28;37895;-76
2022/08/20 01:08:02;;;;;;;;;;;19.00;99.90;;;;;;5055261;27;39206;-76
2022/08/20 01:10:31;;;;;;;;;;;19.00;99.90;;;;;;5060436;27;39418;-77
2022/08/20 01:12:57;;;;;;;;;;;19.00;99.90;;;;;;5088987;27;37852;-77
2022/08/20 01:15:25;;;;;;;;;;;19.00;99.90;;;;;;5057059;27;39927;-77
2022/08/20 01:17:53;;;;;;;;;;;19.00;99.90;;;;;;5075166;27;37814;-76
2022/08/20 01:20:27;;;;;;;;;;;19.00;99.90;;;;;;5054838;27;37904;-77
2022/08/20 01:26:08;;;;;;;;;;;18.90;99.90;;;;;;5057284;28;49920;-77
2022/08/20 01:28:44;;;;;;;;;;;19.00;99.90;;;;;;5055624;28;47283;-76
2022/08/20 01:31:15;;;;;;;;;;;19.00;99.90;;;;;;5065487;27;38537;-77
2022/08/20 01:33:41;;;;;;;;;;;19.00;99.90;;;;;;5067309;27;37764;-76
2022/08/20 01:36:07;;;;;;;;;;;18.90;99.90;;;;;;5064917;27;37139;-76
2022/08/20 01:38:34;;;;;;;;;;;18.80;99.90;;;;;;5061989;28;39529;-77
2022/08/20 01:41:05;;;;;;;;;;;18.80;99.90;;;;;;5062755;28;39841;-76
2022/08/20 01:43:31;;;;;;;;;;;18.70;99.90;;;;;;5087751;27;47146;-77
2022/08/20 01:45:57;;;;;;;;;;;18.70;99.90;;;;;;5060765;28;36055;-77
2022/08/20 01:48:23;;;;;;;;;;;18.70;99.90;;;;;;5058509;27;38931;-76
2022/08/20 01:50:56;;;;;;;;;;;18.60;99.90;;;;;;5060569;28;38618;-77
2022/08/20 01:53:29;;;;;;;;;;;18.60;99.90;;;;;;5073029;27;39224;-77
2022/08/20 01:55:54;;;;;;;;;;;18.60;99.90;;;;;;5055561;28;37784;-77
2022/08/20 01:58:20;;;;;;;;;;;18.60;99.90;;;;;;5057233;27;39285;-74
2022/08/20 02:00:46;;;;;;;;;;;18.50;99.90;;;;;;5056523;27;39618;-76
2022/08/20 02:03:12;;;;;;;;;;;18.50;99.90;;;;;;5062454;28;36850;-77
2022/08/20 02:05:38;;;;;;;;;;;18.50;99.90;;;;;;5059494;27;37320;-76
2022/08/20 02:08:04;;;;;;;;;;;18.40;99.90;;;;;;5060612;28;40642;-76
2022/08/20 02:10:30;;;;;;;;;;;18.40;99.90;;;;;;5061120;28;39369;-76
2022/08/20 02:12:57;;;;;;;;;;;18.40;99.90;;;;;;5054439;28;38515;-76
2022/08/20 02:15:23;;;;;;;;;;;18.40;99.90;;;;;;5057157;27;37331;-77
2022/08/20 02:17:49;;;;;;;;;;;18.30;99.90;;;;;;5057200;27;39951;-76
2022/08/20 02:20:17;;;;;;;;;;;18.30;99.90;;;;;;5056692;27;38505;-76
2022/08/20 02:22:46;;;;;;;;;;;18.30;99.90;;;;;;5053871;27;38435;-77
2022/08/20 02:25:13;;;;;;;;;;;18.20;99.90;;;;;;5058838;27;38196;-77
2022/08/20 02:27:41;;;;;;;;;;;18.20;99.90;;;;;;5055470;27;37355;-76
2022/08/20 02:30:10;;;;;;;;;;;18.20;99.90;;;;;;5057236;27;38468;-76
2022/08/20 02:32:36;;;;;;;;;;;18.20;99.90;;;;;;5062747;28;38008;-76
2022/08/20 02:35:07;;;;;;;;;;;18.10;99.90;;;;;;5062140;28;36544;-77
2022/08/20 02:37:34;;;;;;;;;;;18.00;99.90;;;;;;5057776;28;39397;-77
2022/08/20 02:40:00;;;;;;;;;;;18.00;99.90;;;;;;5059271;27;38510;-77
2022/08/20 02:42:26;;;;;;;;;;;18.00;99.90;;;;;;5060305;28;38089;-77
2022/08/20 02:44:53;;;;;;;;;;;18.00;99.90;;;;;;5061815;28;36918;-77
2022/08/20 02:47:19;;;;;;;;;;;17.90;99.90;;;;;;5056665;27;39863;-77
2022/08/20 02:49:45;;;;;;;;;;;17.90;99.90;;;;;;5062216;27;40215;-77
2022/08/20 02:52:10;;;;;;;;;;;17.90;99.90;;;;;;5050655;27;36956;-77
2022/08/20 02:54:36;;;;;;;;;;;17.80;99.90;;;;;;5058443;27;37877;-77
2022/08/20 02:57:03;;;;;;;;;;;17.80;99.90;;;;;;5050047;28;39897;-77
2022/08/20 02:59:29;;;;;;;;;;;17.70;99.90;;;;;;5055898;27;37900;-77
2022/08/20 03:01:55;;;;;;;;;;;17.70;99.90;;;;;;5054975;28;38015;-77
2022/08/20 03:04:21;;;;;;;;;;;17.60;99.90;;;;;;5058467;27;37330;-77
2022/08/20 03:06:47;;;;;;;;;;;17.60;99.90;;;;;;5060174;28;38053;-77
2022/08/20 03:09:13;;;;;;;;;;;17.50;99.90;;;;;;5056968;27;38906;-76
2022/08/20 03:11:38;;;;;;;;;;;17.40;99.90;;;;;;5065089;28;39542;-76
2022/08/20 03:14:05;;;;;;;;;;;17.30;99.90;;;;;;5079292;27;37158;-76
2022/08/20 03:16:31;;;;;;;;;;;17.20;99.90;;;;;;5074353;28;39153;-76
2022/08/20 03:18:57;;;;;;;;;;;17.20;99.90;;;;;;5063047;27;37549;-76
2022/08/20 03:21:23;;;;;;;;;;;17.10;99.90;;;;;;5059707;28;38892;-79
2022/08/20 03:23:49;;;;;;;;;;;17.10;99.90;;;;;;5057428;27;37319;-76
2022/08/20 03:26:16;;;;;;;;;;;17.10;99.90;;;;;;5061052;27;40820;-78
2022/08/20 03:28:42;;;;;;;;;;;17.00;99.90;;;;;;5069828;27;38430;-77
2022/08/20 03:31:08;;;;;;;;;;;17.00;99.90;;;;;;5058681;28;39250;-77
2022/08/20 03:33:35;;;;;;;;;;;16.90;99.90;;;;;;5055962;28;38633;-78
2022/08/20 03:36:01;;;;;;;;;;;16.90;99.90;;;;;;5056955;28;40564;-77
2022/08/20 03:38:27;;;;;;;;;;;16.80;99.90;;;;;;5058808;27;48395;-77
2022/08/20 03:40:53;;;;;;;;;;;16.80;99.90;;;;;;5059546;28;38102;-77
2022/08/20 03:43:19;;;;;;;;;;;16.70;99.90;;;;;;5058734;28;37721;-77
2022/08/20 03:45:45;;;;;;;;;;;16.70;99.90;;;;;;5062560;27;38969;-77
2022/08/20 03:48:13;;;;;;;;;;;16.60;99.90;;;;;;5057715;28;39252;-77
2022/08/20 03:50:40;;;;;;;;;;;16.60;99.90;;;;;;5060503;27;37799;-79
2022/08/20 03:53:07;;;;;;;;;;;16.60;99.90;;;;;;5079774;27;36657;-79
2022/08/20 03:55:33;;;;;;;;;;;16.50;99.90;;;;;;5062735;28;40447;-78
2022/08/20 03:58:01;;;;;;;;;;;16.50;99.90;;;;;;5059565;28;40080;-78
2022/08/20 04:00:30;;;;;;;;;;;16.40;99.90;;;;;;5084258;27;47306;-78
2022/08/20 04:02:56;;;;;;;;;;;16.40;99.90;;;;;;5056475;27;37253;-78
2022/08/20 04:05:26;;;;;;;;;;;16.40;99.90;;;;;;5052616;27;38787;-79
2022/08/20 04:07:52;;;;;;;;;;;16.40;99.90;;;;;;5059272;27;39389;-78
2022/08/20 04:10:18;;;;;;;;;;;16.30;99.90;;;;;;5054565;27;39023;-79
2022/08/20 04:12:44;;;;;;;;;;;16.30;99.90;;;;;;5057046;28;37889;-78
2022/08/20 04:15:11;;;;;;;;;;;16.30;99.90;;;;;;5057338;28;38442;-78
2022/08/20 04:17:40;;;;;;;;;;;16.20;99.90;;;;;;5053814;27;19995;-78
2022/08/20 04:20:08;;;;;;;;;;;16.20;99.90;;;;;;5055746;27;37748;-78
2022/08/20 04:22:34;;;;;;;;;;;16.20;99.90;;;;;;5053113;27;36483;-78
2022/08/20 04:25:00;;;;;;;;;;;16.20;99.90;;;;;;5055299;27;38384;-78
2022/08/20 04:27:26;;;;;;;;;;;16.10;99.90;;;;;;5055782;27;38309;-78
2022/08/20 04:29:52;;;;;;;;;;;16.10;99.90;;;;;;5056637;28;37881;-79
2022/08/20 04:32:19;;;;;;;;;;;16.10;99.90;;;;;;5057371;27;37413;-79
2022/08/20 04:34:45;;;;;;;;;;;16.00;99.90;;;;;;5060538;28;39511;-78
2022/08/20 04:37:11;;;;;;;;;;;16.00;99.90;;;;;;5057231;27;40127;-78
2022/08/20 04:39:37;;;;;;;;;;;16.00;99.90;;;;;;5056854;27;38936;-77
2022/08/20 04:42:03;;;;;;;;;;;16.00;99.90;;;;;;5058209;28;38099;-78
2022/08/20 04:44:29;;;;;;;;;;;15.90;99.90;;;;;;5051911;27;40430;-78
2022/08/20 04:46:55;;;;;;;;;;;15.90;99.90;;;;;;5053992;28;39158;-78
2022/08/20 04:49:23;;;;;;;;;;;15.90;99.90;;;;;;5059544;27;38074;-78
2022/08/20 04:51:49;;;;;;;;;;;15.90;99.90;;;;;;5060895;28;36911;-77
2022/08/20 04:54:15;;;;;;;;;;;15.80;99.90;;;;;;5055182;27;39839;-77
2022/08/20 04:56:41;;;;;;;;;;;15.80;99.90;;;;;;5054674;28;39909;-79
2022/08/20 04:59:07;;;;;;;;;;;15.80;99.90;;;;;;5055129;27;38000;-78
2022/08/20 05:01:33;;;;;;;;;;;15.80;99.90;;;;;;5061439;27;37313;-78
2022/08/20 05:03:59;;;;;;;;;;;15.80;99.90;;;;;;5056217;28;38798;-78
2022/08/20 05:06:28;;;;;;;;;;;15.80;99.90;;;;;;5060307;28;36950;-79
2022/08/20 05:08:55;;;;;;;;;;;15.80;99.90;;;;;;5056673;28;39020;-79
2022/08/20 05:11:21;;;;;;;;;;;15.80;99.90;;;;;;5052953;27;37357;-79
2022/08/20 05:13:47;;;;;;;;;;;15.80;99.90;;;;;;5046698;28;37768;-78
2022/08/20 05:16:14;;;;;;;;;;;15.80;99.90;;;;;;5064491;27;39712;-79
2022/08/20 05:18:43;;;;;;;;;;;15.80;99.90;;;;;;5062598;27;39193;-79
2022/08/20 05:21:08;;;;;;;;;;;15.80;99.90;;;;;;5055287;27;36711;-79
2022/08/20 05:23:36;;;;;;;;;;;15.80;99.90;;;;;;5060960;27;40474;-78
2022/08/20 05:26:06;;;;;;;;;;;15.80;99.90;;;;;;5057980;27;39907;-78
2022/08/20 05:28:32;;;;;;;;;;;15.90;99.90;;;;;;5057094;28;37806;-78
2022/08/20 05:30:59;;;;;;;;;;;15.90;99.90;;;;;;5055597;27;37737;-78
2022/08/20 05:33:25;;;;;;;;;;;15.90;99.90;;;;;;5058039;27;39866;-78
2022/08/20 05:35:52;;;;;;;;;;;15.90;99.90;;;;;;5057234;27;38543;-78
2022/08/20 05:38:19;;;;;;;;;;;16.00;99.90;;;;;;5059260;27;37601;-78
2022/08/20 05:40:46;;;;;;;;;;;16.10;99.90;;;;;;5056673;27;37285;-78
2022/08/20 05:43:12;;;;;;;;;;;16.10;99.90;;;;;;5059119;27;39551;-78
2022/08/20 05:45:39;;;;;;;;;;;16.10;99.90;;;;;;5070445;27;39364;-79
2022/08/20 05:48:07;;;;;;;;;;;16.20;99.90;;;;;;5055524;27;38836;-77
2022/08/20 05:50:33;;;;;;;;;;;16.20;99.90;;;;;;5043372;28;38494;-78
2022/08/20 05:53:00;;;;;;;;;;;16.30;99.90;;;;;;5046317;28;40821;-78
2022/08/20 05:55:26;;;;;;;;;;;16.30;99.90;;;;;;5044756;28;39241;-78
2022/08/20 05:58:00;;;;;;;;;;;16.30;99.90;;;;;;5053926;28;37131;-78
2022/08/20 06:00:27;;;;;;;;;;;16.40;99.90;;;;;;5058031;27;36786;-79
2022/08/20 06:05:37;;;;;;;;;;;16.50;99.90;;;;;;5047994;28;49522;-78
2022/08/20 06:08:04;;;;;;;;;;;16.50;99.90;;;;;;5054329;27;40058;-78
2022/08/20 06:10:30;;;;;;;;;;;16.60;99.90;;;;;;5052155;28;37310;-79
2022/08/20 06:12:56;;;;;;;;;;;16.70;99.90;;;;;;5058211;28;38701;-78
2022/08/20 06:15:22;;;;;;;;;;;16.80;99.90;;;;;;5059067;27;39724;-78
2022/08/20 06:17:48;;;;;;;;;;;16.90;99.90;;;;;;5058434;28;38472;-78
2022/08/20 06:20:14;;;;;;;;;;;16.90;99.90;;;;;;5051963;27;37250;-77
2022/08/20 06:22:40;;;;;;;;;;;17.00;99.90;;;;;;5032196;28;39100;-78
2022/08/20 06:25:07;;;;;;;;;;;17.00;99.90;;;;;;5036398;28;39280;-77
2022/08/20 06:27:36;;;;;;;;;;;17.10;99.90;;;;;;5034362;28;36805;-79
2022/08/20 06:30:02;;;;;;;;;;;17.20;99.90;;;;;;5035037;28;37270;-77
2022/08/20 06:32:28;;;;;;;;;;;17.30;99.90;;;;;;5034324;28;39532;-77
2022/08/20 06:34:54;;;;;;;;;;;17.40;99.90;;;;;;5034624;28;39535;-77
2022/08/20 06:37:22;;;;;;;;;;;17.50;99.90;;;;;;5039794;28;38386;-76
2022/08/20 06:39:52;;;;;;;;;;;17.50;99.90;;;;;;5037797;28;37832;-76
2022/08/20 06:42:19;;;;;;;;;;;17.60;99.90;;;;;;5029519;28;38570;-75
2022/08/20 06:44:48;;;;;;;;;;;17.80;99.90;;;;;;5027464;28;40108;-77
2022/08/20 06:47:15;;;;;;;;;;;18.00;99.90;;;;;;5032594;28;41536;-76
2022/08/20 06:49:41;;;;;;;;;;;18.10;99.90;;;;;;5029859;28;35838;-77
2022/08/20 06:52:07;;;;;;;;;;;18.20;99.90;;;;;;5027593;28;39440;-77
2022/08/20 06:54:33;;;;;;;;;;;18.30;99.90;;;;;;5035706;28;38632;-76
2022/08/20 06:57:00;;;;;;;;;;;18.40;99.90;;;;;;5033949;28;38378;-76
2022/08/20 06:59:26;;;;;;;;;;;18.40;99.90;;;;;;5037042;28;36960;-76
2022/08/20 07:01:55;;;;;;;;;;;18.40;99.90;;;;;;5041940;28;39450;-76
2022/08/20 07:04:24;;;;;;;;;;;18.50;99.90;;;;;;5035174;28;37937;-77
2022/08/20 07:06:51;;;;;;;;;;;18.70;99.90;;;;;;5032683;28;37526;-77
2022/08/20 07:09:18;;;;;;;;;;;18.70;99.90;;;;;;5048800;28;37545;-76
2022/08/20 07:11:44;;;;;;;;;;;18.70;99.90;;;;;;5047840;27;38373;-76
2022/08/20 07:14:10;;;;;;;;;;;18.80;99.90;;;;;;5042133;28;38909;-76
2022/08/20 07:16:36;;;;;;;;;;;19.00;99.90;;;;;;5044258;27;38926;-76
2022/08/20 07:19:02;;;;;;;;;;;19.20;99.90;;;;;;5042762;28;37066;-76
2022/08/20 07:21:29;;;;;;;;;;;19.60;99.90;;;;;;5044016;28;38054;-76
2022/08/20 07:23:55;;;;;;;;;;;19.90;99.90;;;;;;5050060;28;40279;-76
2022/08/20 07:26:22;;;;;;;;;;;20.30;99.90;;;;;;5054939;27;38505;-76
2022/08/20 07:28:48;;;;;;;;;;;20.70;99.90;;;;;;5091847;27;37386;-77
2022/08/20 07:34:04;;;;;;;;;;;21.40;99.90;;;;;;5050627;27;40012;-78
2022/08/20 07:36:31;;;;;;;;;;;21.70;99.90;;;;;;5054240;28;47364;-78
2022/08/20 07:38:57;;;;;;;;;;;21.90;99.90;;;;;;5063747;28;37867;-78
2022/08/20 07:41:23;;;;;;;;;;;21.90;99.90;;;;;;5051427;27;41022;-78
2022/08/20 07:43:49;;;;;;;;;;;22.00;99.90;;;;;;5059672;27;38754;-78
2022/08/20 07:46:16;;;;;;;;;;;22.20;99.90;;;;;;5052590;27;36580;-78
2022/08/20 07:48:48;;;;;;;;;;;22.30;99.90;;;;;;5055486;28;37250;-77
2022/08/20 07:51:16;;;;;;;;;;;22.50;99.90;;;;;;5061688;27;38633;-77
2022/08/20 07:53:43;;;;;;;;;;;22.50;99.90;;;;;;5057983;27;38248;-78
2022/08/20 07:56:14;;;;;;;;;;;22.50;99.90;;;;;;5061377;28;37538;-79
2022/08/20 07:58:42;;;;;;;;;;;22.60;99.90;;;;;;5090033;27;36762;-78
2022/08/20 08:01:10;;;;;;;;;;;22.70;99.90;;;;;;5062976;27;39741;-78
2022/08/20 08:03:36;;;;;;;;;;;23.00;99.90;;;;;;5060280;27;39549;-79
2022/08/20 08:06:02;;;;;;;;;;;22.90;99.90;;;;;;5059766;27;38118;-77
2022/08/20 08:08:30;;;;;;;;;;;23.00;99.90;;;;;;5067756;28;36102;-79
2022/08/20 08:10:58;;;;;;;;;;;23.10;99.90;;;;;;5063765;28;40717;-78
2022/08/20 08:13:26;;;;;;;;;;;23.30;99.90;;;;;;5061122;28;38421;-78
2022/08/20 08:15:53;;;;;;;;;;;23.40;99.90;;;;;;5064716;27;38169;-78
2022/08/20 08:18:22;;;;;;;;;;;23.50;99.90;;;;;;5062309;28;38070;-79
2022/08/20 08:20:51;;;;;;;;;;;23.40;99.90;;;;;;5060962;28;39471;-79
2022/08/20 08:23:19;;;;;;;;;;;23.40;99.90;;;;;;5065586;28;37473;-79
2022/08/20 08:25:45;;;;;;;;;;;23.60;99.90;;;;;;5065512;27;38139;-80
2022/08/20 08:28:14;;;;;;;;;;;23.60;99.90;;;;;;5060624;27;36445;-79
2022/08/20 08:30:41;;;;;;;;;;;23.60;99.90;;;;;;5058711;27;39531;-79
2022/08/20 08:33:26;;;;;;;;;;;23.80;99.90;;;;;;5062360;27;40526;-79
2022/08/20 08:35:53;;;;;;;;;;;23.80;99.90;;;;;;5059898;28;36935;-79
2022/08/20 08:38:21;;;;;;;;;;;23.40;99.90;;;;;;5056287;28;37529;-80
2022/08/20 08:40:50;;;;;;;;;;;23.40;99.90;;;;;;5060756;28;39451;-80
2022/08/20 08:43:19;;;;;;;;;;;23.30;99.90;;;;;;5059061;27;39446;-80
2022/08/20 08:45:48;;;;;;;;;;;23.70;99.90;;;;;;5053665;27;38657;-81
2022/08/20 08:48:15;;;;;;;;;;;24.00;99.90;;;;;;5069560;27;36393;-80
2022/08/20 08:50:44;;;;;;;;;;;24.10;99.90;;;;;;5057425;27;39117;-79
2022/08/20 08:53:14;;;;;;;;;;;24.30;99.90;;;;;;5057683;28;38579;-79
2022/08/20 08:55:40;;;;;;;;;;;24.40;99.90;;;;;;5060967;28;36865;-80
2022/08/20 08:58:07;;;;;;;;;;;24.30;99.90;;;;;;5060865;28;37011;-80
2022/08/20 09:00:33;;;;;;;;;;;23.80;99.90;;;;;;5068215;27;38997;-79
2022/08/20 09:03:07;;;;;;;;;;;23.90;99.90;;;;;;5060244;27;38970;-80
2022/08/20 09:05:37;;;;;;;;;;;24.30;99.90;;;;;;5059784;27;49867;-80
2022/08/20 09:08:07;;;;;;;;;;;24.30;99.90;;;;;;5057663;27;35921;-81
2022/08/20 09:10:33;;;;;;;;;;;24.50;99.90;;;;;;5056792;28;38423;-80
2022/08/20 09:13:00;;;;;;;;;;;24.80;99.90;;;;;;5058490;28;36661;-79
2022/08/20 09:15:26;;;;;;;;;;;24.80;99.90;;;;;;5054468;27;38855;-79
2022/08/20 09:17:52;;;;;;;;;;;25.00;99.90;;;;;;5056300;28;37071;-79
2022/08/20 09:20:18;;;;;;;;;;;25.00;99.90;;;;;;5067029;27;38058;-78
2022/08/20 09:22:44;;;;;;;;;;;25.50;99.90;;;;;;5058687;28;37619;-78
2022/08/20 09:25:10;;;;;;;;;;;25.40;99.90;;;;;;5061172;27;37061;-79
2022/08/20 09:27:36;;;;;;;;;;;25.20;99.90;;;;;;5058058;28;36720;-78
2022/08/20 09:30:02;;;;;;;;;;;24.90;99.90;;;;;;5053392;28;40536;-77
2022/08/20 09:32:28;;;;;;;;;;;24.80;99.90;;;;;;5061681;28;46591;-78
2022/08/20 09:34:55;;;;;;;;;;;24.60;99.90;;;;;;5062328;28;38205;-78
2022/08/20 09:37:21;;;;;;;;;;;24.40;99.90;;;;;;5061454;28;36181;-77
2022/08/20 09:39:47;;;;;;;;;;;24.30;99.90;;;;;;5057323;28;40321;-76
2022/08/20 09:42:18;;;;;;;;;;;24.00;99.90;;;;;;5059061;27;38900;-78
2022/08/20 09:44:44;;;;;;;;;;;24.00;99.90;;;;;;5073028;27;38804;-76
2022/08/20 09:47:10;;;;;;;;;;;23.70;99.90;;;;;;5092017;27;36789;-76
2022/08/20 09:49:36;;;;;;;;;;;23.70;99.90;;;;;;5055416;27;37821;-79
2022/08/20 09:52:03;;;;;;;;;;;23.50;99.90;;;;;;5057646;27;38818;-77
2022/08/20 09:54:29;;;;;;;;;;;23.40;99.90;;;;;;5089391;27;39573;-78
2022/08/20 09:57:03;;;;;;;;;;;23.30;99.90;;;;;;5056645;27;36558;-78
2022/08/20 09:59:29;;;;;;;;;;;23.10;99.90;;;;;;5065769;27;48005;-78
2022/08/20 10:01:56;;;;;;;;;;;23.20;99.90;;;;;;5053275;28;39378;-78
2022/08/20 10:04:21;;;;;;;;;;;23.30;99.90;;;;;;5063858;28;38010;-78
2022/08/20 10:06:47;;;;;;;;;;;23.20;99.90;;;;;;5063722;28;35893;-78
2022/08/20 10:09:13;;;;;;;;;;;23.20;99.90;;;;;;5091431;27;39125;-78
2022/08/20 10:11:39;;;;;;;;;;;23.30;99.90;;;;;;5057799;28;38533;-77
2022/08/20 10:14:07;;;;;;;;;;;23.20;99.90;;;;;;5041779;28;38857;-78
2022/08/20 10:16:34;;;;;;;;;;;23.20;99.90;;;;;;5060813;28;37699;-78
2022/08/20 10:19:00;;;;;;;;;;;23.30;99.90;;;;;;5062677;28;40869;-78
2022/08/20 10:21:26;;;;;;;;;;;23.30;99.90;;;;;;5061304;27;38406;-78
2022/08/20 10:23:51;;;;;;;;;;;23.50;99.90;;;;;;5060476;28;39425;-78
2022/08/20 10:26:18;;;;;;;;;;;23.80;99.90;;;;;;5061744;28;37270;-78
2022/08/20 10:28:43;;;;;;;;;;;24.30;99.90;;;;;;5062948;28;38358;-77
2022/08/20 10:31:10;;;;;;;;;;;24.80;99.90;;;;;;5059833;27;38010;-78
2022/08/20 10:33:36;;;;;;;;;;;25.00;99.90;;;;;;5063180;28;38985;-76
2022/08/20 10:36:06;;;;;;;;;;;25.10;99.90;;;;;;5058499;28;37342;-77
2022/08/20 10:38:32;;;;;;;;;;;25.20;99.90;;;;;;5058125;28;38925;-76
2022/08/20 10:40:58;;;;;;;;;;;25.10;99.90;;;;;;5056712;28;38999;-77
2022/08/20 10:43:24;;;;;;;;;;;24.90;99.90;;;;;;5062430;27;39165;-77
2022/08/20 10:45:50;;;;;;;;;;;24.50;99.90;;;;;;5064641;28;37490;-79
2022/08/20 10:48:16;;;;;;;;;;;23.40;99.90;;;;;;5055164;27;39026;-79
2022/08/20 10:50:42;;;;;;;;;;;23.30;99.90;;;;;;5064079;28;40223;-79
2022/08/20 10:53:08;;;;;;;;;;;23.50;99.90;;;;;;5065053;27;37827;-78
2022/08/20 10:55:34;;;;;;;;;;;23.50;99.90;;;;;;5065741;28;37917;-79
2022/08/20 10:58:00;;;;;;;;;;;23.40;99.90;;;;;;5068895;28;37857;-78
2022/08/20 11:00:25;;;;;;;;;;;23.40;99.90;;;;;;5067424;28;39289;-78
2022/08/20 11:02:51;;;;;;;;;;;23.70;99.90;;;;;;5061908;27;38948;-78
2022/08/20 11:05:17;;;;;;;;;;;23.90;99.90;;;;;;5064584;28;37207;-79
2022/08/20 11:07:44;;;;;;;;;;;23.90;99.90;;;;;;5066207;27;38961;-78
2022/08/20 11:10:10;;;;;;;;;;;24.10;99.90;;;;;;5060297;27;38858;-78
2022/08/20 11:12:36;;;;;;;;;;;24.10;99.90;;;;;;5088030;27;37897;-78
2022/08/20 11:15:03;;;;;;;;;;;24.30;99.90;;;;;;5066458;28;37453;-77
2022/08/20 11:17:31;;;;;;;;;;;23.90;99.90;;;;;;5043396;28;40779;-81
2022/08/20 11:19:57;;;;;;;;;;;23.50;99.90;;;;;;5054755;28;38561;-79
2022/08/20 11:22:23;;;;;;;;;;;23.40;99.90;;;;;;5041002;28;37944;-78
2022/08/20 11:24:49;;;;;;;;;;;24.00;99.90;;;;;;5043164;28;40921;-76
2022/08/20 11:27:23;;;;;;;;;;;24.30;99.90;;;;;;5036631;28;38850;-76
2022/08/20 11:29:49;;;;;;;;;;;24.40;99.90;;;;;;5032021;28;37460;-77
2022/08/20 11:32:15;;;;;;;;;;;24.40;99.90;;;;;;5030135;28;38546;-76
2022/08/20 11:34:41;;;;;;;;;;;24.90;99.90;;;;;;5039494;28;36651;-75
2022/08/20 11:37:06;;;;;;;;;;;24.80;99.90;;;;;;5041257;28;39741;-77
2022/08/20 11:39:33;;;;;;;;;;;24.50;99.90;;;;;;5038852;28;39136;-76
2022/08/20 11:42:00;;;;;;;;;;;24.30;99.90;;;;;;5033528;28;40102;-76
2022/08/20 11:44:26;;;;;;;;;;;23.70;99.90;;;;;;5036927;28;38155;-75
2022/08/20 11:46:52;;;;;;;;;;;23.70;99.90;;;;;;5035846;28;39568;-79
2022/08/20 11:49:18;;;;;;;;;;;23.50;99.90;;;;;;5033817;28;39178;-77
2022/08/20 11:51:44;;;;;;;;;;;23.60;99.90;;;;;;5035292;28;38279;-77
2022/08/20 11:54:10;;;;;;;;;;;23.70;99.90;;;;;;5034456;28;37011;-77
2022/08/20 11:56:36;;;;;;;;;;;23.70;99.90;;;;;;5034193;28;39958;-78
2022/08/20 11:59:02;;;;;;;;;;;23.50;99.90;;;;;;5033075;28;39662;-76
2022/08/20 12:01:28;;;;;;;;;;;23.40;99.90;;;;;;5039472;28;38633;-77
2022/08/20 12:03:54;;;;;;;;;;;23.80;99.90;;;;;;5042148;28;36984;-77
2022/08/20 12:06:19;;;;;;;;;;;24.00;99.90;;;;;;5041484;28;39802;-78
2022/08/20 12:08:45;;;;;;;;;;;23.80;99.90;;;;;;5038647;28;39140;-76
2022/08/20 12:11:11;;;;;;;;;;;23.40;99.90;;;;;;5038086;28;38037;-79
2022/08/20 12:13:37;;;;;;;;;;;23.50;99.90;;;;;;5041767;28;37928;-80
2022/08/20 12:16:04;;;;;;;;;;;23.20;99.90;;;;;;5038695;28;39846;-80
2022/08/20 12:18:30;;;;;;;;;;;23.10;99.90;;;;;;5034292;27;38658;-78
2022/08/20 12:20:56;;;;;;;;;;;23.20;99.90;;;;;;5046369;28;38967;-80
2022/08/20 12:23:22;;;;;;;;;;;23.20;99.90;;;;;;5039765;28;37068;-79
2022/08/20 12:25:51;;;;;;;;;;;23.50;99.90;;;;;;5045324;28;38236;-79
2022/08/20 12:28:17;;;;;;;;;;;23.70;99.90;;;;;;5042763;28;39065;-79
2022/08/20 12:30:43;;;;;;;;;;;23.50;99.90;;;;;;5042720;28;37956;-79
2022/08/20 12:33:12;;;;;;;;;;;23.70;99.90;;;;;;5041716;28;37570;-80
2022/08/20 12:35:42;;;;;;;;;;;24.10;99.90;;;;;;5044334;28;38979;-79
2022/08/20 12:38:26;;;;;;;;;;;24.10;99.90;;;;;;5023050;28;38731;-81
2022/08/20 12:40:52;;;;;;;;;;;23.80;99.90;;;;;;5053714;28;37140;-80
2022/08/20 12:43:18;;;;;;;;;;;24.30;99.90;;;;;;5058126;28;37981;-79
2022/08/20 12:45:44;;;;;;;;;;;24.10;99.90;;;;;;5064440;28;37720;-80
2022/08/20 12:48:11;;;;;;;;;;;23.80;99.90;;;;;;5068620;27;37856;-77
2022/08/20 12:50:38;;;;;;;;;;;23.60;99.90;;;;;;5065003;28;38317;-80
2022/08/20 12:53:04;;;;;;;;;;;23.60;99.90;;;;;;5061214;28;38277;-81
2022/08/20 12:55:31;;;;;;;;;;;23.70;99.90;;;;;;5062278;28;38649;-81
2022/08/20 12:57:59;;;;;;;;;;;23.60;99.90;;;;;;5062955;28;38292;-79
2022/08/20 13:00:27;;;;;;;;;;;23.40;99.90;;;;;;5089533;27;37361;-80
2022/08/20 13:02:54;;;;;;;;;;;23.40;99.90;;;;;;5061090;27;37404;-79
2022/08/20 13:05:21;;;;;;;;;;;23.40;99.90;;;;;;5056097;27;39502;-79
2022/08/20 13:07:47;;;;;;;;;;;23.70;99.90;;;;;;5086031;27;39181;-80
2022/08/20 13:10:19;;;;;;;;;;;24.20;99.90;;;;;;5061254;28;38344;-79
2022/08/20 13:12:44;;;;;;;;;;;24.00;99.90;;;;;;5059479;27;36930;-78
2022/08/20 13:15:10;;;;;;;;;;;24.10;99.90;;;;;;5060931;27;39190;-79
2022/08/20 13:17:36;;;;;;;;;;;24.10;99.90;;;;;;5059072;28;36768;-78
2022/08/20 13:20:04;;;;;;;;;;;23.80;99.90;;;;;;5065115;28;37646;-79
2022/08/20 13:22:30;;;;;;;;;;;23.70;99.90;;;;;;5067712;27;48722;-79
2022/08/20 13:24:56;;;;;;;;;;;23.70;99.90;;;;;;5071113;27;40128;-79
2022/08/20 13:27:23;;;;;;;;;;;23.60;99.90;;;;;;5067816;27;40721;-78
2022/08/20 13:29:50;;;;;;;;;;;23.60;99.90;;;;;;5065371;28;41135;-78
2022/08/20 13:32:17;;;;;;;;;;;23.70;99.90;;;;;;5063687;27;35967;-77
2022/08/20 13:34:44;;;;;;;;;;;23.70;99.90;;;;;;5064810;28;38109;-78
2022/08/20 13:37:10;;;;;;;;;;;23.70;99.90;;;;;;5074247;27;38364;-77
2022/08/20 13:39:37;;;;;;;;;;;23.80;99.90;;;;;;5069998;28;37090;-78
2022/08/20 13:42:03;;;;;;;;;;;23.90;99.90;;;;;;5064980;27;36074;-77
2022/08/20 13:44:29;;;;;;;;;;;23.90;99.90;;;;;;5067254;28;39124;-77
2022/08/20 13:46:55;;;;;;;;;;;24.00;99.90;;;;;;5064162;28;37805;-78
2022/08/20 13:49:21;;;;;;;;;;;23.80;99.90;;;;;;5070166;27;39493;-78
2022/08/20 13:51:47;;;;;;;;;;;23.80;99.90;;;;;;5067729;28;37759;-77
2022/08/20 13:54:13;;;;;;;;;;;24.00;99.90;;;;;;5069505;27;40731;-77
2022/08/20 13:56:38;;;;;;;;;;;24.00;99.90;;;;;;5059486;28;41655;-77
2022/08/20 13:59:05;;;;;;;;;;;23.70;99.90;;;;;;5065308;28;38457;-76
2022/08/20 14:01:30;;;;;;;;;;;23.60;99.90;;;;;;5065904;28;35987;-76
2022/08/20 14:03:56;;;;;;;;;;;23.40;99.90;;;;;;5067309;27;40158;-77
2022/08/20 14:06:22;;;;;;;;;;;23.40;99.90;;;;;;5056568;27;40113;-78
2022/08/20 14:08:48;;;;;;;;;;;23.80;99.90;;;;;;5065467;28;36484;-77
2022/08/20 14:11:14;;;;;;;;;;;23.70;99.90;;;;;;5067249;27;36926;-77
2022/08/20 14:13:40;;;;;;;;;;;23.50;99.90;;;;;;5068637;28;40222;-77
2022/08/20 14:16:06;;;;;;;;;;;23.50;99.90;;;;;;5062802;27;38848;-77
2022/08/20 14:18:32;;;;;;;;;;;23.00;99.90;;;;;;5082320;28;39609;-77
2022/08/20 14:20:58;;;;;;;;;;;22.80;99.90;;;;;;5062772;28;37478;-77
2022/08/20 14:23:24;;;;;;;;;;;23.20;99.90;;;;;;5063223;27;37498;-77